ADDS METAR Data INFO
IDs: Format: Raw Decoded Include TAF

Data at: 1132 UTC 29 May 2017

KRIW 291053Z AUTO 29006KT 10SM CLR 07/05 A3028 RMK AO2 SLP215 T00720050 $
KRIW 290953Z AUTO 26006KT 10SM CLR 07/05 A3027 RMK AO2 SLP209 T00720050 $
KRIW 290853Z AUTO 25004KT 10SM SCT090 08/06 A3028 RMK AO2 SLP211 T00830056 58005 $
KRIW 290753Z AUTO 25004KT 10SM SCT085 08/06 A3029 RMK AO2 SLP215 T00830056 $
KRIW 290653Z AUTO 00000KT 10SM BKN080 11/05 A3030 RMK AO2 SLP213 T01110050 402220056 $
KRIW 290553Z AUTO 05004KT 10SM FEW021 SCT049 SCT080 11/07 A3029 RMK AO2 RAB07E51 SLP217 P0000 60000 T01060067 10194 20106 50006 $
KRIW 290453Z AUTO 24004KT 10SM BKN070 BKN100 OVC120 12/05 A3030 RMK AO2 SLP217 T01220050 $
KRIW 290353Z AUTO 15003KT 10SM OVC070 14/04 A3029 RMK AO2 SLP215 T01440039 $
KRIW 290253Z AUTO 00000KT 10SM BKN075 14/05 A3027 RMK AO2 SLP215 60000 T01390050 53014 $
KRIW 290153Z AUTO 02012KT 10SM CLR 14/04 A3023 RMK AO2 PK WND 04027/0101 SLP203 T01440044 $
KRIW 290053Z AUTO 03021G30KT 10SM SCT100 16/04 A3022 RMK AO2 PK WND 05030/0046 RAE2359 SLP196 P0000 T01560044 $
KRIW 282353Z AUTO VRB03KT 10SM -RA FEW039 BKN060 OVC085 18/03 A3023 RMK AO2 RAB38 SLP201 P0000 60000 T01780028 10222 20172 55001 $
KRIW 282253Z AUTO 03012KT 10SM OVC090 19/02 A3022 RMK AO2 SLP197 T01890022 $
KRIW 282153Z AUTO 00000KT 10SM CLR 21/M03 A3022 RMK AO2 SLP193 T02111033 $
KRIW 282053Z AUTO 00000KT 10SM CLR 21/M04 A3023 RMK AO2 SLP196 T02061039 58016 $
KRIW 281953Z AUTO VRB03KT 10SM SCT085 20/M01 A3025 RMK AO2 SLP203 T02001011 $
KRIW 281853Z AUTO 00000KT 10SM CLR 19/M01 A3027 RMK AO2 SLP207 T01941006 $
KRIW 281753Z AUTO VRB04KT 10SM CLR 18/01 A3028 RMK AO2 SLP215 T01830011 10183 20067 58005 $
KRIW 281653Z AUTO 05007KT 010V070 10SM CLR 17/03 A3029 RMK AO2 SLP218 T01720028 $
KRIW 281553Z AUTO 01009KT 10SM CLR 16/02 A3030 RMK AO2 SLP220 T01560017 $
KRIW 281453Z AUTO 31007KT 10SM CLR 12/04 A3030 RMK AO2 SLP221 T01220039 53008 $
KRIW 281353Z AUTO 26007KT 10SM BKN090 11/02 A3029 RMK AO2 SLP219 T01110022 $
KRIW 281253Z AUTO 26011KT 10SM CLR 09/01 A3028 RMK AO2 SLP215 T00940011 $
KRIW 281153Z AUTO 28012KT 10SM CLR 07/01 A3027 RMK AO2 SLP218 T00670011 10089 20056 53002 $
KRIW 281053Z AUTO 29011KT 10SM CLR 06/01 A3026 RMK AO2 SLP217 T00610011 $
KRIW 280953Z AUTO 29010KT 10SM FEW090 07/02 A3026 RMK AO2 SLP217 T00670017 $
KRIW 280853Z AUTO 31011KT 10SM FEW085 07/01 A3026 RMK AO2 SLP215 T00720011 51003 $
KRIW 280753Z AUTO 28006KT 10SM SCT090 08/02 A3026 RMK AO2 SLP217 T00780017 $
KRIW 280653Z AUTO 26010KT 10SM CLR 09/02 A3026 RMK AO2 SLP215 T00890017 401830033 $
KRIW 280553Z AUTO 25008KT 10SM CLR 09/01 A3026 RMK AO2 SLP214 T00890011 10178 20083 51009 $
KRIW 280453Z AUTO 22007KT 10SM CLR 10/01 A3025 RMK AO2 SLP213 T01000006 $
KRIW 280353Z AUTO 00000KT 10SM CLR 12/M02 A3024 RMK AO2 SLP209 T01221017 $
KRIW 280253Z AUTO 12003KT 10SM CLR 15/M03 A3022 RMK AO2 SLP201 T01501033 53005 $
KRIW 280153Z AUTO 08003KT 10SM CLR 16/01 A3022 RMK AO2 SLP201 T01560006 $
KRIW 280053Z AUTO 00000KT 10SM CLR 17/M03 A3021 RMK AO2 SLP200 T01721033 $
KRIW 272353Z AUTO 03007KT 10SM FEW075 17/M02 A3021 RMK AO2 SLP202 T01721022 10183 20133 53003 $


Page loaded:  11:32 UTC  |   04:32 AM Pacific  |   05:32 AM Mountain  |   06:32 AM Central  |   07:32 AM Eastern

 

ADVISORIES

FORECASTS

FORECASTS

OBSERVATIONS

USER TOOLS

ABOUT US